createdAt,value
2016-08-27T00:02:03.795Z,41.9
2016-08-27T00:07:03.582Z,41.9
2016-08-27T00:12:04.036Z,41.9
2016-08-27T00:17:04.591Z,41.8
2016-08-27T00:22:04.196Z,41.8
2016-08-27T00:27:04.449Z,41.7
2016-08-27T00:32:04.109Z,41.7
2016-08-27T00:37:03.416Z,41.7
2016-08-27T00:42:03.939Z,41.6
2016-08-27T00:47:03.457Z,41.8
2016-08-27T00:52:04.033Z,41.7
2016-08-27T00:57:03.571Z,41.7
2016-08-27T01:02:04.096Z,41.6
2016-08-27T01:07:03.964Z,41.7
2016-08-27T01:12:03.511Z,41.6
2016-08-27T01:17:04.188Z,41.7
2016-08-27T01:22:03.776Z,41.7
2016-08-27T01:27:04.024Z,41.7
2016-08-27T01:32:03.620Z,41.7
2016-08-27T01:37:04.016Z,41.6
2016-08-27T01:42:03.472Z,41.6
2016-08-27T01:47:03.972Z,41.5
2016-08-27T01:52:04.109Z,41.6
2016-08-27T01:57:03.746Z,41.4
2016-08-27T02:02:04.247Z,41.6
2016-08-27T02:07:04.417Z,41.5
2016-08-27T02:12:04.105Z,41.4
2016-08-27T02:17:04.609Z,41.5
2016-08-27T02:22:03.959Z,41.3
2016-08-27T02:27:04.469Z,41.4
2016-08-27T02:32:04.198Z,41.4
2016-08-27T02:37:03.841Z,41.5
2016-08-27T02:42:04.289Z,41.4
2016-08-27T02:47:04.072Z,41.4
2016-08-27T02:52:03.486Z,41.7
2016-08-27T02:57:04.041Z,41.3
2016-08-27T03:02:03.684Z,41.3
2016-08-27T03:07:03.714Z,41.3
2016-08-27T03:12:04.150Z,41.4
2016-08-27T03:17:04.121Z,41.3
2016-08-27T03:22:04.155Z,41.3
2016-08-27T03:27:03.755Z,41.4
2016-08-27T03:32:04.189Z,41.4
2016-08-27T03:37:03.844Z,41.5
2016-08-27T03:42:04.134Z,41.5
2016-08-27T03:47:05.265Z,41.4
2016-08-27T03:52:03.457Z,41.4
2016-08-27T03:57:04.065Z,41.4
2016-08-27T04:02:14.378Z,41.4
2016-08-27T04:07:04.243Z,41.4
2016-08-27T04:12:04.467Z,41.4
2016-08-27T04:17:27.198Z,41.4
2016-08-27T04:22:03.584Z,41.3
2016-08-27T04:27:04.336Z,41.6
2016-08-27T04:32:31.403Z,41.4
2016-08-27T04:37:03.885Z,41.4
2016-08-27T04:42:04.061Z,41.2
2016-08-27T04:47:31.894Z,41.3
2016-08-27T04:52:04.021Z,41.2
2016-08-27T04:57:04.285Z,41.2
2016-08-27T05:02:32.386Z,41.2
2016-08-27T05:07:04.104Z,41.0
2016-08-27T05:12:03.687Z,41.0
2016-08-27T05:17:32.319Z,41.0
2016-08-27T05:22:04.342Z,40.8
2016-08-27T05:27:03.732Z,40.7
2016-08-27T05:32:34.582Z,40.6
2016-08-27T05:37:03.904Z,40.5
2016-08-27T05:42:04.403Z,40.3
2016-08-27T05:47:32.339Z,40.5
2016-08-27T05:52:04.341Z,40.4
2016-08-27T05:57:03.830Z,40.2
2016-08-27T06:02:30.009Z,40.2
2016-08-27T06:07:04.371Z,40.2
2016-08-27T06:12:03.690Z,40.1
2016-08-27T06:17:30.189Z,40.2
2016-08-27T06:22:04.038Z,40.1
2016-08-27T06:27:04.278Z,40.0
2016-08-27T06:32:30.635Z,40.0
2016-08-27T06:37:04.389Z,40.1
2016-08-27T06:42:03.718Z,40.2
2016-08-27T06:47:33.545Z,40.2
2016-08-27T06:52:04.123Z,40.2
2016-08-27T06:57:03.477Z,40.2
2016-08-27T07:02:31.612Z,40.7
2016-08-27T07:07:03.934Z,40.5
2016-08-27T07:12:03.713Z,40.4
2016-08-27T07:17:35.849Z,40.5
2016-08-27T07:22:04.472Z,40.6
2016-08-27T07:27:03.898Z,40.6
2016-08-27T07:32:31.583Z,40.6
2016-08-27T07:37:04.427Z,40.5
2016-08-27T07:42:04.084Z,40.7
2016-08-27T07:47:37.324Z,40.7
2016-08-27T07:52:03.865Z,40.6
2016-08-27T07:57:04.223Z,40.5
2016-08-27T08:02:34.286Z,41.0
2016-08-27T08:07:04.171Z,40.9
2016-08-27T08:12:04.276Z,40.9
2016-08-27T08:17:32.853Z,41.3
2016-08-27T08:22:03.772Z,41.7
2016-08-27T08:27:03.866Z,41.7
2016-08-27T08:32:36.858Z,41.7
2016-08-27T08:37:03.650Z,41.7
2016-08-27T08:42:03.486Z,41.9
2016-08-27T08:47:33.477Z,41.9
2016-08-27T08:52:04.300Z,42.4
2016-08-27T08:57:04.233Z,42.3
2016-08-27T09:02:32.487Z,42.6
2016-08-27T09:07:03.749Z,42.6
2016-08-27T09:12:03.939Z,42.6
2016-08-27T09:17:32.322Z,42.8
2016-08-27T09:22:03.960Z,42.8
2016-08-27T09:27:03.731Z,42.8
2016-08-27T09:32:31.869Z,43.2
2016-08-27T09:37:04.384Z,43.1
2016-08-27T09:42:04.298Z,43.6
2016-08-27T09:47:37.288Z,43.9
2016-08-27T09:52:03.486Z,43.6
2016-08-27T09:57:04.342Z,43.6
2016-08-27T10:02:37.302Z,44.0
2016-08-27T10:07:04.006Z,44.0
2016-08-27T10:12:03.925Z,44.0
2016-08-27T10:17:32.380Z,43.8
2016-08-27T10:22:03.459Z,44.4
2016-08-27T10:27:04.188Z,44.4
2016-08-27T10:32:34.391Z,44.2
2016-08-27T10:37:04.086Z,44.2
2016-08-27T10:42:04.289Z,44.5
2016-08-27T10:47:32.436Z,44.4
2016-08-27T10:52:03.417Z,44.5
2016-08-27T10:57:04.136Z,44.5
2016-08-27T11:02:36.997Z,44.4
2016-08-27T11:07:03.834Z,44.5
2016-08-27T11:12:03.755Z,44.4
2016-08-27T11:17:35.342Z,44.4
2016-08-27T11:22:04.334Z,45.0
2016-08-27T11:27:03.986Z,44.9
2016-08-27T11:32:31.738Z,44.5
2016-08-27T11:37:04.028Z,44.3
2016-08-27T11:42:03.609Z,44.5
2016-08-27T11:47:32.463Z,44.3
2016-08-27T11:52:04.251Z,44.6
2016-08-27T11:57:04.029Z,44.6
2016-08-27T12:02:32.040Z,44.4
2016-08-27T12:07:04.253Z,44.6
2016-08-27T12:12:04.218Z,44.1
2016-08-27T12:17:32.395Z,44.5
2016-08-27T12:22:03.918Z,44.4
2016-08-27T12:27:03.588Z,43.9
2016-08-27T12:32:36.954Z,44.0
2016-08-27T12:37:04.293Z,44.2
2016-08-27T12:42:03.566Z,44.0
2016-08-27T12:47:36.863Z,44.7
2016-08-27T12:52:03.378Z,44.7
2016-08-27T12:57:04.091Z,44.5
2016-08-27T13:02:31.742Z,44.5
2016-08-27T13:07:03.528Z,44.4
2016-08-27T13:12:04.164Z,44.4
2016-08-27T13:17:29.926Z,44.2
2016-08-27T13:22:04.396Z,44.3
2016-08-27T13:27:03.690Z,44.8
2016-08-27T13:32:32.091Z,44.8
2016-08-27T13:37:03.664Z,44.9
2016-08-27T13:42:04.017Z,45.2
2016-08-27T13:47:35.573Z,44.6
2016-08-27T13:52:04.235Z,44.6
2016-08-27T13:57:03.678Z,44.7
2016-08-27T20:02:05.020Z,41.7
2016-08-27T20:07:04.256Z,41.8
2016-08-27T20:12:03.796Z,41.6
2016-08-27T20:17:03.505Z,41.6
2016-08-27T20:22:03.587Z,41.7
2016-08-27T20:27:04.342Z,41.4
2016-08-27T20:32:05.631Z,41.2
2016-08-27T20:37:03.687Z,41.2
2016-08-27T20:42:04.314Z,41.3
2016-08-27T20:52:04.329Z,40.9
2016-08-27T20:57:03.803Z,40.7
2016-08-27T21:02:03.765Z,40.7
2016-08-27T21:07:03.954Z,40.8
2016-08-27T21:12:04.414Z,40.7
2016-08-27T21:17:03.928Z,41.0
2016-08-27T21:22:04.371Z,41.0
2016-08-27T21:27:03.686Z,41.1
2016-08-27T21:32:03.729Z,41.0
2016-08-27T21:37:04.278Z,41.2
2016-08-27T21:42:04.058Z,41.2
2016-08-27T21:47:04.266Z,41.2
2016-08-27T21:52:03.916Z,41.3
2016-08-27T21:57:03.762Z,41.3
2016-08-27T22:02:03.804Z,41.3
2016-08-27T22:07:04.127Z,41.2
2016-08-27T22:12:04.290Z,41.3
2016-08-27T22:22:04.317Z,40.8
2016-08-27T22:27:03.500Z,41.2
2016-08-27T22:32:03.956Z,41.2
2016-08-27T22:37:04.306Z,41.2
2016-08-27T22:42:03.981Z,41.2
2016-08-27T22:47:03.755Z,41.3
2016-08-27T22:52:04.168Z,41.3
2016-08-27T22:57:03.698Z,41.3
2016-08-27T23:02:04.117Z,41.2
2016-08-27T23:07:03.617Z,41.2
2016-08-27T23:12:04.351Z,41.2
2016-08-27T23:17:03.999Z,41.2
2016-08-27T23:22:03.942Z,41.1
2016-08-27T23:27:04.305Z,41.2
2016-08-27T23:32:04.049Z,41.2
2016-08-27T23:37:03.513Z,41.0
2016-08-27T23:42:04.020Z,41.1
2016-08-27T23:47:05.034Z,41.1
2016-08-27T23:52:03.888Z,41.2
2016-08-27T23:57:04.332Z,41.2
